This is the latest recevied weather packets stored in our database for station/object K6POO-1. If no packets are shown the sender has not sent any weather packets the latest 10 day(s).
| Time | Temp. | Humidity | Pressure | Rain* | Wind** | Luminosity | Snow |
|---|---|---|---|---|---|---|---|
| 1777928445 | 16.67° C | 59% | 1015.7 hPa | 0 mm | - | 506 W/m² | - |
| 1777928143 | 16.67° C | 60% | 1015.9 hPa | 0 mm | - | 583 W/m² | - |
| 1777927841 | 16.67° C | 61% | 1016 hPa | 0 mm | - | 611 W/m² | - |
| 1777927538 | 16.67° C | 62% | 1016 hPa | 0 mm | - | 547 W/m² | - |
| 1777927238 | 16.67° C | 61% | 1016 hPa | 0 mm | - | 680 W/m² | - |
| 1777926935 | 16.67° C | 61% | 1015.8 hPa | 0 mm | - | 570 W/m² | - |
| 1777926632 | 16.67° C | 61% | 1015.8 hPa | 0 mm | - | 537 W/m² | - |
| 1777926327 | 16.67° C | 65% | 1015.8 hPa | 0 mm | - | 513 W/m² | - |
| 1777926025 | 16.67° C | 64% | 1015.8 hPa | 0 mm | - | 643 W/m² | - |
| 1777925721 | 16.67° C | 65% | 1015.7 hPa | 0 mm | - | 594 W/m² | - |
| 1777925419 | 16.67° C | 65% | 1015.7 hPa | 0 mm | - | 501 W/m² | - |
| 1777925115 | 16.11° C | 67% | 1016 hPa | 0 mm | - | 608 W/m² | - |
| 1777924812 | 16.11° C | 68% | 1015.8 hPa | 0 mm | - | 408 W/m² | - |
| 1777924508 | 15.56° C | 70% | 1015.9 hPa | 0 mm | - | 378 W/m² | - |
| 1777924206 | 15.56° C | 68% | 1015.8 hPa | 0 mm | - | 361 W/m² | - |
| 1777923902 | 16.11° C | 67% | 1016.1 hPa | 0 mm | - | 458 W/m² | - |
| 1777923597 | 16.11° C | 68% | 1016.2 hPa | 0 mm | - | 676 W/m² | - |
| 1777923294 | 15.56° C | 70% | 1016.2 hPa | 0 mm | - | 881 W/m² | - |
| 1777922993 | 16.11° C | 69% | 1015.9 hPa | 0 mm | - | 493 W/m² | - |
| 1777922690 | 15.56° C | 70% | 1015.9 hPa | 0 mm | - | 510 W/m² | - |
| 1777922389 | 15.56° C | 71% | 1016.1 hPa | 0 mm | - | 476 W/m² | - |
| 1777922087 | 15.56° C | 71% | 1016.2 hPa | 0 mm | - | 479 W/m² | - |
| 1777921782 | 15.56° C | 70% | 1016 hPa | 0 mm | - | 445 W/m² | - |
| 1777921478 | 15.56° C | 71% | 1016.1 hPa | 0 mm | - | 358 W/m² | - |
| 1777921174 | 15.56° C | 70% | 1016.1 hPa | 0 mm | - | 368 W/m² | - |
* Rain latest hour (hover to see other rain measurements)
** Current wind speed in m/s (hover to see current wind gust speed)